createdAt,value
2023-04-26T00:01:04.248Z,3.20
2023-04-26T00:05:08.220Z,2.58
2023-04-26T00:09:10.584Z,4.70
2023-04-26T00:13:12.366Z,4.15
2023-04-26T00:17:14.208Z,6.40
2023-04-26T00:21:16.014Z,5.10
2023-04-26T00:25:17.984Z,4.82
2023-04-26T00:29:19.698Z,5.05
2023-04-26T00:33:21.406Z,5.68
2023-04-26T00:37:23.407Z,4.97
2023-04-26T00:41:25.137Z,4.22
2023-04-26T00:45:27.252Z,4.82
2023-04-26T00:49:29.065Z,4.65
2023-04-26T00:53:31.280Z,4.85
2023-04-26T00:57:33.085Z,5.47
2023-04-26T01:01:35.908Z,2.90
2023-04-26T01:05:38.507Z,3.00
2023-04-26T01:09:40.704Z,2.88
2023-04-26T01:13:42.687Z,3.88
2023-04-26T01:17:47.307Z,5.88
2023-04-26T01:21:49.411Z,5.93
2023-04-26T01:25:51.312Z,4.93
2023-04-26T01:29:53.054Z,5.03
2023-04-26T01:33:54.757Z,4.00
2023-04-26T01:37:56.545Z,3.00
2023-04-26T01:42:02.906Z,3.53
2023-04-26T01:46:07.185Z,3.92
2023-04-26T01:50:10.067Z,1.65
2023-04-26T01:54:11.903Z,3.20
2023-04-26T01:58:13.718Z,1.70
2023-04-26T02:02:17.536Z,2.15
2023-04-26T02:06:19.878Z,3.22
2023-04-26T02:10:21.582Z,2.20
2023-04-26T02:14:23.280Z,2.20
2023-04-26T02:18:25.579Z,2.70
2023-04-26T02:22:27.364Z,4.22
2023-04-26T02:26:29.384Z,2.35
2023-04-26T02:30:31.674Z,2.67
2023-04-26T02:34:33.684Z,1.60
2023-04-26T02:38:36.529Z,1.70
2023-04-26T02:42:40.078Z,1.90
2023-04-26T02:46:42.229Z,2.15
2023-04-26T02:50:44.288Z,2.30
2023-04-26T02:54:48.510Z,3.38
2023-04-26T02:58:50.765Z,2.38
2023-04-26T03:02:53.036Z,2.97
2023-04-26T03:06:55.127Z,3.05
2023-04-26T03:10:56.920Z,3.85
2023-04-26T03:14:59.205Z,2.17
2023-04-26T03:19:01.513Z,2.55
2023-04-26T03:23:04.084Z,1.50
2023-04-26T03:27:06.404Z,3.25
2023-04-26T03:31:08.699Z,2.70
2023-04-26T03:35:11.158Z,2.17
2023-04-26T03:39:13.203Z,2.90
2023-04-26T03:43:15.334Z,3.65
2023-04-26T03:47:17.438Z,2.83
2023-04-26T03:51:19.539Z,3.15
2023-04-26T03:55:21.887Z,3.13
2023-04-26T03:59:23.910Z,2.78
2023-04-26T04:03:26.338Z,5.07
2023-04-26T04:07:28.314Z,2.72
2023-04-26T04:11:31.049Z,4.80
2023-04-26T04:15:33.100Z,4.95
2023-04-26T04:19:35.121Z,3.13
2023-04-26T04:23:37.374Z,3.30
2023-04-26T04:27:43.663Z,2.80
2023-04-26T04:31:46.398Z,3.33
2023-04-26T04:35:48.549Z,4.95
2023-04-26T04:39:50.842Z,3.85
2023-04-26T04:43:53.764Z,5.00
2023-04-26T04:47:56.393Z,4.68
2023-04-26T04:51:58.696Z,5.55
2023-04-26T04:56:01.091Z,4.68
2023-04-26T05:00:10.266Z,6.38
2023-04-26T05:04:18.340Z,5.15
2023-04-26T05:08:20.207Z,3.75
2023-04-26T05:12:22.160Z,5.22
2023-04-26T05:16:24.092Z,5.95
2023-04-26T05:20:26.123Z,4.97
2023-04-26T05:24:30.806Z,5.03
2023-04-26T05:28:34.254Z,3.70
2023-04-26T05:32:57.226Z,4.03
2023-04-26T05:37:28.306Z,4.15
2023-04-26T05:41:30.189Z,3.67
2023-04-26T05:45:32.158Z,7.13
2023-04-26T05:49:35.462Z,9.68
2023-04-26T05:53:37.186Z,5.90
2023-04-26T05:57:39.963Z,8.32
2023-04-26T06:01:42.010Z,5.88
2023-04-26T06:05:43.953Z,9.60
2023-04-26T06:09:46.227Z,7.35
2023-04-26T06:13:47.929Z,5.70
2023-04-26T06:17:49.788Z,7.78
2023-04-26T06:21:54.889Z,6.95
2023-04-26T06:25:56.945Z,6.32
2023-04-26T06:29:58.786Z,4.22
2023-04-26T06:34:01.576Z,5.18
2023-04-26T06:38:03.541Z,7.07
2023-04-26T06:42:06.420Z,5.63
2023-04-26T06:46:38.128Z,6.93
2023-04-26T06:50:40.232Z,8.15
2023-04-26T06:54:53.632Z,6.13
2023-04-26T06:59:02.852Z,8.05
2023-04-26T07:03:04.833Z,3.97
2023-04-26T07:07:06.708Z,7.55
2023-04-26T07:11:13.275Z,4.63
2023-04-26T07:15:15.654Z,9.30
2023-04-26T07:19:17.952Z,8.07
2023-04-26T07:23:20.012Z,8.75
2023-04-26T07:27:21.752Z,5.35
2023-04-26T07:31:23.512Z,8.63
2023-04-26T07:35:25.443Z,8.60
2023-04-26T07:39:27.186Z,5.43
2023-04-26T07:43:30.829Z,7.95
2023-04-26T07:47:32.796Z,4.20
2023-04-26T07:51:35.825Z,9.60
2023-04-26T07:55:37.686Z,6.97
2023-04-26T07:59:39.395Z,5.70
2023-04-26T08:03:41.745Z,8.85
2023-04-26T08:07:43.876Z,3.67
2023-04-26T08:11:45.961Z,7.40
2023-04-26T08:15:48.466Z,5.43
2023-04-26T08:19:50.193Z,2.70
2023-04-26T08:23:52.436Z,4.88
2023-04-26T08:27:54.367Z,4.63
2023-04-26T08:31:56.633Z,6.38
2023-04-26T08:36:01.341Z,3.05
2023-04-26T08:40:04.016Z,4.05
2023-04-26T08:44:06.316Z,6.53
2023-04-26T08:48:13.508Z,5.50
2023-04-26T08:52:17.254Z,3.88
2023-04-26T08:56:19.136Z,5.47
2023-04-26T09:00:21.504Z,5.60
2023-04-26T09:04:24.381Z,7.32
2023-04-26T09:08:28.153Z,4.18
2023-04-26T09:12:30.352Z,8.43
2023-04-26T09:16:38.274Z,6.53
2023-04-26T09:20:40.044Z,3.78
2023-04-26T09:24:50.524Z,5.03
2023-04-26T09:29:20.926Z,7.40
2023-04-26T09:33:22.682Z,4.72
2023-04-26T09:37:24.461Z,3.20
2023-04-26T09:41:42.759Z,5.32
2023-04-26T09:45:57.681Z,5.40
2023-04-26T09:50:01.335Z,5.63
2023-04-26T09:54:03.132Z,5.07
2023-04-26T09:58:09.433Z,6.18
2023-04-26T10:02:16.075Z,5.93
2023-04-26T10:06:18.000Z,6.75
2023-04-26T10:10:21.598Z,4.63
2023-04-26T10:14:23.587Z,6.72
2023-04-26T10:18:25.375Z,4.45
2023-04-26T10:22:34.040Z,5.03
2023-04-26T10:26:51.936Z,5.18
2023-04-26T10:30:55.508Z,5.38
2023-04-26T10:35:17.738Z,5.47
2023-04-26T10:39:25.137Z,3.92
2023-04-26T10:43:30.368Z,2.70
2023-04-26T10:47:34.805Z,3.28
2023-04-26T10:51:36.658Z,3.30
2023-04-26T10:55:39.946Z,4.68
2023-04-26T11:00:16.578Z,2.38
2023-04-26T11:04:18.820Z,2.95
2023-04-26T11:08:25.439Z,2.95
2023-04-26T11:12:27.213Z,3.55
2023-04-26T11:16:29.040Z,3.33
2023-04-26T11:20:32.266Z,4.25
2023-04-26T11:24:41.790Z,3.03
2023-04-26T11:28:45.219Z,5.07
2023-04-26T11:32:47.025Z,4.45
2023-04-26T11:36:49.134Z,2.92
2023-04-26T11:40:57.005Z,3.38
2023-04-26T11:44:59.641Z,2.63
2023-04-26T11:49:01.410Z,2.17
2023-04-26T11:53:05.710Z,5.50
2023-04-26T11:57:16.682Z,4.07
2023-04-26T12:01:26.839Z,4.60
2023-04-26T12:05:32.642Z,4.57
2023-04-26T12:09:34.510Z,4.15
2023-04-26T12:13:39.668Z,3.13
2023-04-26T12:17:51.171Z,4.53
2023-04-26T12:21:53.408Z,4.22
2023-04-26T12:25:56.854Z,3.33
2023-04-26T12:29:58.545Z,4.00
2023-04-26T12:34:00.293Z,2.88
2023-04-26T12:38:02.105Z,3.80
2023-04-26T12:42:04.183Z,3.25
2023-04-26T12:46:06.142Z,2.47
2023-04-26T12:50:08.297Z,3.35
2023-04-26T12:54:10.024Z,4.75
2023-04-26T12:58:11.899Z,4.07
2023-04-26T13:02:13.816Z,3.40
2023-04-26T13:06:16.148Z,4.13
2023-04-26T13:10:18.102Z,2.53
2023-04-26T13:14:20.107Z,2.50
2023-04-26T13:18:21.890Z,1.60
2023-04-26T13:22:23.584Z,2.90
2023-04-26T13:26:27.536Z,3.40
2023-04-26T13:30:30.006Z,2.10
2023-04-26T13:34:32.137Z,1.95
2023-04-26T13:38:33.903Z,2.47
2023-04-26T13:42:35.820Z,3.35
2023-04-26T13:46:37.713Z,4.38
2023-04-26T13:50:39.506Z,3.88
2023-04-26T13:54:41.312Z,3.42
2023-04-26T13:58:44.227Z,4.03
2023-04-26T14:02:46.247Z,2.83
2023-04-26T14:06:48.215Z,3.45
2023-04-26T14:10:50.112Z,1.80
2023-04-26T14:14:51.880Z,3.33
2023-04-26T14:18:53.714Z,3.55
2023-04-26T14:22:55.458Z,1.65
2023-04-26T14:26:58.409Z,2.35
2023-04-26T14:31:00.808Z,3.83
2023-04-26T14:35:02.584Z,2.50
2023-04-26T14:39:04.664Z,3.05
2023-04-26T14:43:06.455Z,1.98
2023-04-26T14:47:08.403Z,3.05
2023-04-26T14:51:10.153Z,2.20
2023-04-26T14:55:17.959Z,2.10
2023-04-26T14:59:19.716Z,5.00
2023-04-26T15:03:21.995Z,2.33
2023-04-26T15:07:32.064Z,3.63
2023-04-26T15:11:34.926Z,3.20
2023-04-26T15:15:36.761Z,4.45
2023-04-26T15:19:39.286Z,2.45
2023-04-26T15:23:41.027Z,2.10
2023-04-26T15:27:42.794Z,1.63
2023-04-26T15:31:44.590Z,1.40
2023-04-26T15:35:46.422Z,2.38
2023-04-26T15:39:49.283Z,3.58
2023-04-26T15:43:57.097Z,2.58
2023-04-26T15:47:58.958Z,2.83
2023-04-26T15:52:00.882Z,2.15
2023-04-26T15:56:02.676Z,4.28
2023-04-26T16:00:08.371Z,2.35
2023-04-26T16:04:10.689Z,2.13
2023-04-26T16:08:12.925Z,3.95
2023-04-26T16:12:14.681Z,2.22
2023-04-26T16:16:16.845Z,2.60
2023-04-26T16:20:18.703Z,2.97
2023-04-26T16:24:20.459Z,1.95
2023-04-26T16:28:22.263Z,3.42
2023-04-26T16:32:24.178Z,2.63
2023-04-26T16:36:27.298Z,2.65
2023-04-26T16:40:29.240Z,2.38
2023-04-26T16:44:31.155Z,1.85
2023-04-26T16:48:37.293Z,2.28
2023-04-26T16:52:39.106Z,4.25
2023-04-26T16:56:40.922Z,1.88
2023-04-26T17:00:43.323Z,4.22
2023-04-26T17:04:45.391Z,1.52
2023-04-26T17:08:47.694Z,1.90
2023-04-26T17:12:50.556Z,2.47
2023-04-26T17:16:52.324Z,1.30
2023-04-26T17:20:56.266Z,1.55
2023-04-26T17:24:58.095Z,1.48
2023-04-26T17:29:00.125Z,1.75
2023-04-26T17:33:02.033Z,2.63
2023-04-26T17:37:03.852Z,3.22
2023-04-26T17:41:05.634Z,1.20
2023-04-26T17:45:07.696Z,1.65
2023-04-26T17:49:09.493Z,1.17
2023-04-26T17:53:11.654Z,1.10
2023-04-26T17:57:13.414Z,1.55
2023-04-26T18:01:15.606Z,2.35
2023-04-26T18:05:17.466Z,1.35
2023-04-26T18:09:19.223Z,0.95
2023-04-26T18:13:21.672Z,1.70
2023-04-26T18:17:23.836Z,0.73
2023-04-26T18:21:26.508Z,3.38
2023-04-26T18:25:28.662Z,0.88
2023-04-26T18:29:30.633Z,1.00
2023-04-26T18:33:32.416Z,0.85
2023-04-26T18:37:34.229Z,0.80
2023-04-26T18:41:36.009Z,0.85
2023-04-26T18:45:38.394Z,0.77
2023-04-26T18:49:40.205Z,1.10
2023-04-26T18:53:42.019Z,1.25
2023-04-26T18:57:43.854Z,0.93
2023-04-26T19:01:45.670Z,0.95
2023-04-26T19:05:47.452Z,1.13
2023-04-26T19:09:54.131Z,1.83
2023-04-26T19:13:56.610Z,3.38
2023-04-26T19:17:58.515Z,1.50
2023-04-26T19:22:01.098Z,1.42
2023-04-26T19:26:08.084Z,1.63
2023-04-26T19:30:10.229Z,3.22
2023-04-26T19:34:12.868Z,4.35
2023-04-26T19:38:14.849Z,2.08
2023-04-26T19:42:16.732Z,1.90
2023-04-26T19:46:18.553Z,1.48
2023-04-26T19:50:20.557Z,1.60
2023-04-26T19:54:22.574Z,1.60
2023-04-26T19:58:24.963Z,3.78
2023-04-26T20:02:27.399Z,1.33
2023-04-26T20:06:29.282Z,1.70
2023-04-26T20:10:32.144Z,1.40
2023-04-26T20:14:34.111Z,1.55
2023-04-26T20:18:36.407Z,1.45
2023-04-26T20:22:39.554Z,1.40
2023-04-26T20:26:41.349Z,1.33
2023-04-26T20:30:43.135Z,1.45
2023-04-26T20:34:44.900Z,2.88
2023-04-26T20:38:46.634Z,1.92
2023-04-26T20:42:48.476Z,1.52
2023-04-26T20:46:50.243Z,1.77
2023-04-26T20:50:54.545Z,1.70
2023-04-26T20:54:57.287Z,1.58
2023-04-26T20:58:59.084Z,1.17
2023-04-26T21:03:01.053Z,1.27
2023-04-26T21:07:03.369Z,1.38
2023-04-26T21:11:05.301Z,1.75
2023-04-26T21:15:07.796Z,1.23
2023-04-26T21:19:09.829Z,1.58
2023-04-26T21:23:11.831Z,1.10
2023-04-26T21:27:13.662Z,1.10
2023-04-26T21:31:15.628Z,2.50
2023-04-26T21:35:17.492Z,1.55
2023-04-26T21:39:19.346Z,2.35
2023-04-26T21:43:21.704Z,1.30
2023-04-26T21:47:23.598Z,2.22
2023-04-26T21:51:25.414Z,1.30
2023-04-26T21:55:27.141Z,1.50
2023-04-26T21:59:28.897Z,1.50
2023-04-26T22:03:30.927Z,1.80
2023-04-26T22:07:32.945Z,1.40
2023-04-26T22:11:34.726Z,1.02
2023-04-26T22:15:36.548Z,1.70
2023-04-26T22:19:38.316Z,1.50
2023-04-26T22:23:40.228Z,1.30
2023-04-26T22:27:41.985Z,1.30
2023-04-26T22:31:43.815Z,1.50
2023-04-26T22:35:45.582Z,2.28
2023-04-26T22:39:47.359Z,1.42
2023-04-26T22:43:49.380Z,1.65
2023-04-26T22:47:52.088Z,1.35
2023-04-26T22:52:05.839Z,1.60
2023-04-26T23:00:14.724Z,1.40
2023-04-26T23:04:16.636Z,1.63
2023-04-26T23:08:18.442Z,1.33
2023-04-26T23:12:20.392Z,3.38
2023-04-26T23:16:22.172Z,1.40
2023-04-26T23:20:24.009Z,1.30
2023-04-26T23:24:25.815Z,2.10
2023-04-26T23:28:27.550Z,2.55
2023-04-26T23:32:29.405Z,1.52
2023-04-26T23:36:32.901Z,1.23
2023-04-26T23:40:37.090Z,1.73
2023-04-26T23:44:38.844Z,2.42
2023-04-26T23:48:40.977Z,1.40
2023-04-26T23:52:42.792Z,1.65
2023-04-26T23:56:44.593Z,1.95
